Time;durP1;ratioP1;P1;durP2;ratioP2;P2;SDS_P1;SDS_P2;PMS_P1;PMS_P2;Temp;Humidity;BMP_temperature;BMP_pressure;BME280_temperature;BME280_humidity;BME280_pressure;Samples;Min_cycle;Max_cycle;Signal;HPM_P1;HPM_P2
2022/07/16 00:04:41;;;;;;;8.25;6.18;;;;;;;;;;10134963;28;20048;-66
2022/07/16 00:09:35;;;;;;;7.50;5.80;;;;;;;;;;10140265;28;20055;-67
2022/07/16 00:14:29;;;;;;;7.88;6.00;;;;;;;;;;10141361;28;20064;-67
2022/07/16 00:19:23;;;;;;;9.27;7.53;;;;;;;;;;10142733;28;20052;-67
2022/07/16 00:24:17;;;;;;;9.70;7.40;;;;;;;;;;10139417;28;20049;-66
2022/07/16 00:29:11;;;;;;;7.35;6.25;;;;;;;;;;10138512;28;20427;-66
2022/07/16 00:34:06;;;;;;;8.57;6.40;;;;;;;;;;10148772;28;20070;-66
2022/07/16 00:39:00;;;;;;;12.02;6.78;;;;;;;;;;10139052;28;20131;-66
2022/07/16 00:44:05;;;;;;;9.95;6.70;;;;;;;;;;10138989;28;20071;-66
2022/07/16 00:48:59;;;;;;;12.02;6.95;;;;;;;;;;10128773;28;20106;-66
2022/07/16 00:53:53;;;;;;;7.38;6.63;;;;;;;;;;10146154;28;20086;-66
2022/07/16 00:58:48;;;;;;;9.82;7.30;;;;;;;;;;10127112;28;20047;-67
2022/07/16 01:03:43;;;;;;;10.60;7.22;;;;;;;;;;10141779;28;20056;-66
2022/07/16 01:08:39;;;;;;;9.80;7.82;;;;;;;;;;10149094;28;20044;-66
2022/07/16 01:13:35;;;;;;;18.88;7.82;;;;;;;;;;10143717;28;20049;-66
2022/07/16 01:18:30;;;;;;;15.40;8.02;;;;;;;;;;10142961;28;20041;-66
2022/07/16 01:23:24;;;;;;;8.80;7.40;;;;;;;;;;10122992;28;20106;-66
2022/07/16 01:28:19;;;;;;;9.55;6.13;;;;;;;;;;10140746;28;20048;-66
2022/07/16 01:33:32;;;;;;;11.35;7.18;;;;;;;;;;10135271;28;20079;-66
2022/07/16 01:38:26;;;;;;;8.98;6.20;;;;;;;;;;10136177;28;20139;-66
2022/07/16 01:43:41;;;;;;;6.15;5.55;;;;;;;;;;10136614;28;20045;-66
2022/07/16 01:48:34;;;;;;;6.70;6.05;;;;;;;;;;10145845;28;20056;-66
2022/07/16 01:53:29;;;;;;;11.20;6.75;;;;;;;;;;10142412;28;20059;-66
2022/07/16 01:58:22;;;;;;;7.18;6.38;;;;;;;;;;10146721;28;20404;-66
2022/07/16 02:03:17;;;;;;;7.75;5.65;;;;;;;;;;10136461;28;20052;-66
2022/07/16 02:08:11;;;;;;;7.75;6.07;;;;;;;;;;10145032;28;20562;-66
2022/07/16 02:13:07;;;;;;;10.90;7.10;;;;;;;;;;10135453;28;20080;-66
2022/07/16 02:18:03;;;;;;;12.15;7.00;;;;;;;;;;10132868;28;20396;-66
2022/07/16 02:22:57;;;;;;;6.72;6.13;;;;;;;;;;10142957;28;20057;-67
2022/07/16 02:28:07;;;;;;;9.38;7.05;;;;;;;;;;10134735;28;20052;-66
2022/07/16 02:33:01;;;;;;;7.38;6.68;;;;;;;;;;10134533;28;20358;-66
2022/07/16 02:37:57;;;;;;;7.50;6.10;;;;;;;;;;10132439;28;20044;-66
2022/07/16 02:42:51;;;;;;;10.02;6.38;;;;;;;;;;10138992;28;20458;-66
2022/07/16 02:47:45;;;;;;;7.47;6.75;;;;;;;;;;10139671;28;20075;-66
2022/07/16 02:52:40;;;;;;;7.28;6.68;;;;;;;;;;10146135;28;20060;-66
2022/07/16 02:57:34;;;;;;;6.90;6.30;;;;;;;;;;10137590;28;20093;-66
2022/07/16 03:02:28;;;;;;;9.07;7.25;;;;;;;;;;10142713;28;20058;-66
2022/07/16 03:07:21;;;;;;;7.70;7.00;;;;;;;;;;10128962;28;20040;-66
2022/07/16 03:12:15;;;;;;;8.35;6.47;;;;;;;;;;10130122;28;20055;-66
2022/07/16 03:17:09;;;;;;;6.97;6.35;;;;;;;;;;10128171;28;20057;-66
2022/07/16 03:22:03;;;;;;;6.93;6.32;;;;;;;;;;10118697;28;20134;-66
2022/07/16 03:26:56;;;;;;;8.23;6.68;;;;;;;;;;10148936;28;20412;-66
2022/07/16 03:31:54;;;;;;;6.32;5.63;;;;;;;;;;10149930;28;20063;-66
2022/07/16 03:36:49;;;;;;;6.15;5.55;;;;;;;;;;10145041;28;20544;-66
2022/07/16 03:41:43;;;;;;;12.98;6.50;;;;;;;;;;10131243;28;20505;-66
2022/07/16 03:46:37;;;;;;;7.78;7.15;;;;;;;;;;10143062;28;20094;-66
2022/07/16 03:51:31;;;;;;;10.63;9.73;;;;;;;;;;10148113;28;20492;-66
2022/07/16 03:56:26;;;;;;;11.95;10.75;;;;;;;;;;10137364;28;20508;-66
2022/07/16 04:01:22;;;;;;;11.37;9.87;;;;;;;;;;10150945;28;20095;-66
2022/07/16 04:06:16;;;;;;;9.13;8.40;;;;;;;;;;10150467;28;20500;-66
2022/07/16 04:11:10;;;;;;;11.93;9.00;;;;;;;;;;10133826;28;20053;-66
2022/07/16 04:16:04;;;;;;;13.40;8.40;;;;;;;;;;10138708;28;20045;-66
2022/07/16 04:20:58;;;;;;;10.85;8.82;;;;;;;;;;10144707;28;20041;-66
2022/07/16 04:25:52;;;;;;;9.80;8.80;;;;;;;;;;10122621;28;20056;-66
2022/07/16 04:30:45;;;;;;;10.73;9.80;;;;;;;;;;10138156;28;20048;-66
2022/07/16 04:35:40;;;;;;;11.10;9.98;;;;;;;;;;10141343;28;20136;-66
2022/07/16 04:40:34;;;;;;;10.93;9.57;;;;;;;;;;10132674;28;20060;-66
2022/07/16 04:45:28;;;;;;;17.50;11.15;;;;;;;;;;10145947;28;20044;-66
2022/07/16 04:50:22;;;;;;;18.00;10.25;;;;;;;;;;10125996;28;20048;-66
2022/07/16 04:55:19;;;;;;;11.55;10.35;;;;;;;;;;10118497;28;20099;-66
2022/07/16 05:00:15;;;;;;;14.68;10.35;;;;;;;;;;10127864;28;20431;-66
2022/07/16 05:05:09;;;;;;;11.88;10.82;;;;;;;;;;10115730;28;20057;-66
2022/07/16 05:10:06;;;;;;;17.70;10.18;;;;;;;;;;10118752;28;20069;-67
2022/07/16 05:15:00;;;;;;;11.25;10.05;;;;;;;;;;10120100;28;20052;-66
2022/07/16 05:19:54;;;;;;;15.55;9.70;;;;;;;;;;10125988;28;20049;-66
2022/07/16 05:24:48;;;;;;;21.50;10.65;;;;;;;;;;10138901;28;20074;-66
2022/07/16 05:29:42;;;;;;;14.77;9.88;;;;;;;;;;10128623;28;20097;-66
2022/07/16 05:34:37;;;;;;;22.85;12.68;;;;;;;;;;10137226;28;20057;-67
2022/07/16 05:39:30;;;;;;;38.65;12.55;;;;;;;;;;10138263;28;20102;-66
2022/07/16 05:44:24;;;;;;;22.40;10.50;;;;;;;;;;10137931;28;20076;-66
2022/07/16 05:49:18;;;;;;;18.05;9.68;;;;;;;;;;10127985;28;20520;-67
2022/07/16 05:54:12;;;;;;;9.25;8.35;;;;;;;;;;10133922;28;20123;-67
2022/07/16 05:59:06;;;;;;;10.30;8.82;;;;;;;;;;10133239;28;20361;-67
2022/07/16 06:04:00;;;;;;;9.80;8.82;;;;;;;;;;10132362;28;20060;-67
2022/07/16 06:08:54;;;;;;;12.88;9.07;;;;;;;;;;10134602;28;20587;-67
2022/07/16 06:13:48;;;;;;;13.20;8.57;;;;;;;;;;10145478;28;20135;-66
2022/07/16 06:18:42;;;;;;;14.02;8.95;;;;;;;;;;10122660;28;20044;-67
2022/07/16 06:23:36;;;;;;;14.63;8.20;;;;;;;;;;10139305;28;20052;-67
2022/07/16 06:28:30;;;;;;;12.30;9.25;;;;;;;;;;10143960;28;20052;-64
2022/07/16 06:33:23;;;;;;;9.88;8.48;;;;;;;;;;10134251;28;20526;-65
2022/07/16 06:38:17;;;;;;;10.15;8.70;;;;;;;;;;10137949;28;20569;-64
2022/07/16 06:43:11;;;;;;;11.82;9.32;;;;;;;;;;10136042;28;21002;-65
2022/07/16 06:48:06;;;;;;;10.82;8.68;;;;;;;;;;10121270;28;20080;-65
2022/07/16 06:53:00;;;;;;;12.20;9.77;;;;;;;;;;10141449;28;20046;-66
2022/07/16 06:57:54;;;;;;;12.75;9.27;;;;;;;;;;10137300;28;20059;-66
2022/07/16 07:02:48;;;;;;;13.48;10.07;;;;;;;;;;10151503;28;20036;-66
2022/07/16 07:07:42;;;;;;;11.43;10.27;;;;;;;;;;10143781;28;20037;-67
2022/07/16 07:12:36;;;;;;;10.75;9.73;;;;;;;;;;10141372;28;20076;-66
2022/07/16 07:17:29;;;;;;;12.00;8.65;;;;;;;;;;10134221;28;20143;-67
2022/07/16 07:22:23;;;;;;;12.27;9.82;;;;;;;;;;10146015;28;20064;-68
2022/07/16 07:27:22;;;;;;;10.50;8.63;;;;;;;;;;10146178;28;20469;-67
2022/07/16 07:32:16;;;;;;;11.50;7.80;;;;;;;;;;10143251;28;20055;-67
2022/07/16 07:37:11;;;;;;;11.30;8.52;;;;;;;;;;10142109;28;20079;-67
2022/07/16 07:42:06;;;;;;;10.20;9.13;;;;;;;;;;10147627;28;20143;-68
2022/07/16 07:47:00;;;;;;;10.65;8.25;;;;;;;;;;10143237;28;20060;-68
2022/07/16 07:51:54;;;;;;;9.40;7.50;;;;;;;;;;10136043;28;20072;-67
2022/07/16 07:56:49;;;;;;;11.40;10.13;;;;;;;;;;10144736;28;20102;-68
2022/07/16 08:01:43;;;;;;;10.93;9.85;;;;;;;;;;10141837;28;20083;-68
2022/07/16 08:06:37;;;;;;;8.57;7.68;;;;;;;;;;10138923;28;20509;-69
2022/07/16 08:11:31;;;;;;;12.13;9.27;;;;;;;;;;10144532;28;20044;-68
2022/07/16 08:16:25;;;;;;;10.10;9.02;;;;;;;;;;10126256;28;20064;-68
2022/07/16 08:21:19;;;;;;;14.05;11.05;;;;;;;;;;10143083;28;20063;-70
2022/07/16 08:26:14;;;;;;;8.88;6.82;;;;;;;;;;10139549;28;20052;-70
2022/07/16 08:31:09;;;;;;;11.05;10.00;;;;;;;;;;10143814;28;20072;-67
2022/07/16 08:36:04;;;;;;;9.25;8.30;;;;;;;;;;10145337;28;20109;-69
2022/07/16 08:41:01;;;;;;;11.32;9.10;;;;;;;;;;10142796;28;20052;-70
2022/07/16 08:45:56;;;;;;;13.07;8.27;;;;;;;;;;10145826;28;20131;-66
2022/07/16 08:50:52;;;;;;;11.15;8.38;;;;;;;;;;10134156;28;20500;-67
2022/07/16 08:55:47;;;;;;;11.00;6.47;;;;;;;;;;10139061;28;20103;-68
2022/07/16 09:00:42;;;;;;;6.72;6.13;;;;;;;;;;10141934;28;20053;-70
2022/07/16 09:05:36;;;;;;;7.30;5.93;;;;;;;;;;10145384;28;20052;-70
2022/07/16 09:10:37;;;;;;;11.80;7.78;;;;;;;;;;10140614;28;20091;-70
2022/07/16 09:15:34;;;;;;;12.32;6.40;;;;;;;;;;10141760;28;20064;-68
2022/07/16 09:20:31;;;;;;;11.75;6.43;;;;;;;;;;10138733;28;20048;-70
2022/07/16 09:25:25;;;;;;;9.48;7.15;;;;;;;;;;10134038;28;20119;-70
2022/07/16 09:30:25;;;;;;;9.20;7.03;;;;;;;;;;10136754;28;20132;-69
2022/07/16 09:35:19;;;;;;;11.57;6.00;;;;;;;;;;10135837;28;20045;-68
2022/07/16 09:40:14;;;;;;;13.70;5.88;;;;;;;;;;10134884;28;20126;-67
2022/07/16 09:45:19;;;;;;;9.80;5.78;;;;;;;;;;10131194;28;20070;-67
2022/07/16 09:50:13;;;;;;;10.40;5.95;;;;;;;;;;10141004;28;20067;-70
2022/07/16 09:55:09;;;;;;;7.85;5.63;;;;;;;;;;10132580;28;20459;-69
2022/07/16 10:00:08;;;;;;;9.55;5.93;;;;;;;;;;10125921;28;20045;-67
2022/07/16 10:05:07;;;;;;;8.52;5.70;;;;;;;;;;10128043;28;20059;-69
2022/07/16 10:10:03;;;;;;;7.30;4.90;;;;;;;;;;10139251;28;20062;-66
2022/07/16 10:14:58;;;;;;;;;;;;;;;;;;10142879;28;20051;-66
2022/07/16 10:20:18;;;;;;;10.45;5.70;;;;;;;;;;10130671;28;20045;-67
2022/07/16 10:25:24;;;;;;;11.65;5.32;;;;;;;;;;10119724;28;20062;-67
2022/07/16 10:30:23;;;;;;;7.57;5.20;;;;;;;;;;10134578;28;20453;-67
2022/07/16 10:35:31;;;;;;;11.13;5.28;;;;;;;;;;10129699;28;20051;-63
2022/07/16 10:40:26;;;;;;;9.68;5.00;;;;;;;;;;10121748;28;20134;-62
2022/07/16 10:45:20;;;;;;;11.23;5.22;;;;;;;;;;10142446;28;20040;-63
2022/07/16 10:50:19;;;;;;;5.78;4.93;;;;;;;;;;10130407;28;20072;-62
2022/07/16 10:55:21;;;;;;;12.65;5.80;;;;;;;;;;10138046;28;20090;-62
2022/07/16 11:00:16;;;;;;;9.85;4.65;;;;;;;;;;10120726;28;20056;-62
2022/07/16 11:05:10;;;;;;;8.98;4.60;;;;;;;;;;10138595;28;20114;-63
2022/07/16 11:10:05;;;;;;;7.10;4.65;;;;;;;;;;10131252;28;20037;-63
2022/07/16 11:15:01;;;;;;;7.88;5.47;;;;;;;;;;10122714;28;20052;-64
2022/07/16 11:19:59;;;;;;;6.68;4.78;;;;;;;;;;10132921;28;20045;-64
2022/07/16 11:25:03;;;;;;;8.80;4.68;;;;;;;;;;10129779;28;20420;-64
2022/07/16 11:29:58;;;;;;;9.25;6.05;;;;;;;;;;10121746;28;20512;-64
2022/07/16 11:34:52;;;;;;;9.32;4.93;;;;;;;;;;10130968;28;20081;-64
2022/07/16 11:39:46;;;;;;;9.73;4.55;;;;;;;;;;10126743;28;20052;-65
2022/07/16 11:44:41;;;;;;;8.02;4.50;;;;;;;;;;10138170;28;20056;-66
2022/07/16 11:49:42;;;;;;;9.82;5.30;;;;;;;;;;10136016;28;20056;-65
2022/07/16 11:54:41;;;;;;;10.45;4.53;;;;;;;;;;10138880;28;20128;-64
2022/07/16 11:59:41;;;;;;;7.95;4.68;;;;;;;;;;10142128;28;20045;-64
2022/07/16 12:04:42;;;;;;;8.60;4.50;;;;;;;;;;10127077;28;20103;-64
2022/07/16 12:09:38;;;;;;;10.55;4.88;;;;;;;;;;10133290;28;20056;-64
2022/07/16 12:14:55;;;;;;;6.65;3.85;;;;;;;;;;10124969;28;20185;-64
2022/07/16 12:20:27;;;;;;;9.95;4.22;;;;;;;;;;10136904;28;20056;-65
2022/07/16 12:25:27;;;;;;;7.90;4.20;;;;;;;;;;10142676;28;20151;-64
2022/07/16 12:30:53;;;;;;;7.05;3.40;;;;;;;;;;10137860;28;20056;-64
2022/07/16 12:35:53;;;;;;;5.70;3.42;;;;;;;;;;10134705;28;20071;-64
2022/07/16 12:40:47;;;;;;;8.43;4.65;;;;;;;;;;10135415;28;20045;-64
2022/07/16 12:45:43;;;;;;;5.57;3.27;;;;;;;;;;10135900;28;20110;-65
2022/07/16 12:50:38;;;;;;;5.65;3.78;;;;;;;;;;10136864;28;20068;-64
2022/07/16 13:00:44;;;;;;;9.20;3.67;;;;;;;;;;10137574;28;20098;-64
2022/07/16 13:05:38;;;;;;;7.07;3.63;;;;;;;;;;10142057;28;20511;-64
2022/07/16 13:10:32;;;;;;;8.45;3.25;;;;;;;;;;10136666;28;20056;-64
2022/07/16 13:15:26;;;;;;;7.18;3.90;;;;;;;;;;10137585;28;20079;-64
2022/07/16 13:20:21;;;;;;;4.28;3.47;;;;;;;;;;10129944;28;20534;-64
2022/07/16 13:25:15;;;;;;;10.60;4.03;;;;;;;;;;10120613;28;20052;-64
2022/07/16 13:30:11;;;;;;;7.13;3.53;;;;;;;;;;10139724;28;20048;-64
2022/07/16 13:35:07;;;;;;;7.00;3.97;;;;;;;;;;10139935;28;20052;-64
2022/07/16 13:40:03;;;;;;;9.18;3.72;;;;;;;;;;10144988;28;20309;-64
2022/07/16 13:44:56;;;;;;;5.10;4.00;;;;;;;;;;10129511;28;20055;-64
2022/07/16 13:49:50;;;;;;;6.97;3.38;;;;;;;;;;10137503;28;20098;-64
2022/07/16 13:54:44;;;;;;;5.38;3.60;;;;;;;;;;10126652;28;20045;-64
2022/07/16 13:59:38;;;;;;;7.38;3.88;;;;;;;;;;10142250;28;20051;-64
2022/07/16 14:04:31;;;;;;;4.25;3.55;;;;;;;;;;10144401;28;20483;-64
2022/07/16 14:09:30;;;;;;;11.38;4.10;;;;;;;;;;10133628;28;20459;-64
2022/07/16 14:14:24;;;;;;;8.00;3.83;;;;;;;;;;10142864;28;20048;-64
2022/07/16 14:19:18;;;;;;;6.22;3.75;;;;;;;;;;10136232;28;20110;-64
2022/07/16 14:24:12;;;;;;;6.13;3.28;;;;;;;;;;10129904;28;20420;-64
2022/07/16 14:29:06;;;;;;;4.57;3.20;;;;;;;;;;10128757;28;20044;-64
2022/07/16 14:34:00;;;;;;;4.15;3.40;;;;;;;;;;10126580;28;20072;-64
2022/07/16 14:38:53;;;;;;;4.47;3.70;;;;;;;;;;10127998;28;20455;-64
2022/07/16 14:43:48;;;;;;;6.13;3.67;;;;;;;;;;10107748;28;20073;-64
2022/07/16 14:48:42;;;;;;;5.40;3.70;;;;;;;;;;10139559;28;20109;-64
2022/07/16 14:53:36;;;;;;;7.15;3.83;;;;;;;;;;10138669;28;20566;-64
2022/07/16 14:58:31;;;;;;;5.97;3.53;;;;;;;;;;10134165;28;20098;-64
2022/07/16 15:03:25;;;;;;;7.35;3.95;;;;;;;;;;10137763;28;20163;-64
2022/07/16 15:08:20;;;;;;;8.20;3.33;;;;;;;;;;10142726;28;20060;-64
2022/07/16 15:13:13;;;;;;;6.30;3.00;;;;;;;;;;10128429;28;20098;-64
2022/07/16 15:18:07;;;;;;;4.97;4.00;;;;;;;;;;10125282;28;20048;-64
2022/07/16 15:23:01;;;;;;;5.93;3.90;;;;;;;;;;10149865;28;20135;-63
2022/07/16 15:27:55;;;;;;;5.45;3.70;;;;;;;;;;10149672;28;20552;-64
2022/07/16 15:32:49;;;;;;;5.72;3.33;;;;;;;;;;10144025;28;20131;-64
2022/07/16 15:37:43;;;;;;;9.23;3.80;;;;;;;;;;10135957;28;20549;-63
2022/07/16 15:42:36;;;;;;;4.97;3.58;;;;;;;;;;10142028;28;20068;-64
2022/07/16 15:47:31;;;;;;;4.40;3.38;;;;;;;;;;10139985;28;20071;-64
2022/07/16 15:52:25;;;;;;;5.53;3.53;;;;;;;;;;10128242;28;20072;-63
2022/07/16 15:57:20;;;;;;;4.10;3.53;;;;;;;;;;10139400;28;20132;-64
2022/07/16 16:02:13;;;;;;;5.03;3.22;;;;;;;;;;10139879;28;20072;-63
2022/07/16 16:07:08;;;;;;;5.78;3.33;;;;;;;;;;10139321;28;20060;-63
2022/07/16 16:12:03;;;;;;;4.90;3.60;;;;;;;;;;10150836;28;20457;-64
2022/07/16 16:16:57;;;;;;;6.93;4.20;;;;;;;;;;10142088;28;20109;-63
2022/07/16 16:21:51;;;;;;;6.97;3.90;;;;;;;;;;10140940;28;20485;-63
2022/07/16 16:26:45;;;;;;;5.63;4.18;;;;;;;;;;10143730;28;20055;-63
2022/07/16 16:31:39;;;;;;;6.90;4.07;;;;;;;;;;10146285;28;20098;-63
2022/07/16 16:36:33;;;;;;;4.60;3.10;;;;;;;;;;10142805;28;20053;-63
2022/07/16 16:41:28;;;;;;;7.40;3.65;;;;;;;;;;10140185;28;20509;-63
2022/07/16 16:46:22;;;;;;;8.10;3.67;;;;;;;;;;10129137;28;20539;-64
2022/07/16 16:51:14;;;;;;;12.93;4.05;;;;;;;;;;10119696;28;20068;-64
2022/07/16 16:56:09;;;;;;;5.75;3.47;;;;;;;;;;10137956;28;20421;-63
2022/07/16 17:01:05;;;;;;;5.95;3.80;;;;;;;;;;10133614;28;20049;-64
2022/07/16 17:05:59;;;;;;;12.93;4.70;;;;;;;;;;10138732;28;20055;-64
2022/07/16 17:10:53;;;;;;;4.95;4.20;;;;;;;;;;10137933;28;20056;-63
2022/07/16 17:15:47;;;;;;;5.68;4.25;;;;;;;;;;10138752;28;20534;-64
2022/07/16 17:20:41;;;;;;;5.43;3.40;;;;;;;;;;10147022;28;20053;-64
2022/07/16 17:25:36;;;;;;;8.27;4.45;;;;;;;;;;10146267;28;20696;-63
2022/07/16 17:30:30;;;;;;;10.55;4.28;;;;;;;;;;10144262;28;20060;-63
2022/07/16 17:35:24;;;;;;;6.47;4.07;;;;;;;;;;10138790;28;20044;-64
2022/07/16 17:40:19;;;;;;;14.43;4.53;;;;;;;;;;10140401;28;20068;-63
2022/07/16 17:45:14;;;;;;;12.57;4.35;;;;;;;;;;10134180;28;20053;-64
2022/07/16 17:50:10;;;;;;;9.75;3.83;;;;;;;;;;10146618;28;20139;-63
2022/07/16 17:55:08;;;;;;;4.97;3.83;;;;;;;;;;10140225;28;20102;-63
2022/07/16 18:00:05;;;;;;;8.93;3.85;;;;;;;;;;10137989;28;20075;-64
2022/07/16 18:04:59;;;;;;;9.15;3.80;;;;;;;;;;10122246;28;20132;-64
2022/07/16 18:10:00;;;;;;;9.07;4.57;;;;;;;;;;10136348;28;20154;-63
2022/07/16 18:14:55;;;;;;;12.27;4.53;;;;;;;;;;10140184;28;20103;-63
2022/07/16 18:19:50;;;;;;;14.60;4.53;;;;;;;;;;10131128;28;20056;-63
2022/07/16 18:24:44;;;;;;;16.17;4.00;;;;;;;;;;10131105;28;20055;-63
2022/07/16 18:29:38;;;;;;;9.00;3.92;;;;;;;;;;10133744;28;20037;-64
2022/07/16 18:34:33;;;;;;;7.63;4.38;;;;;;;;;;10139907;28;20049;-64
2022/07/16 18:39:27;;;;;;;10.95;3.97;;;;;;;;;;10138502;28;20053;-63
2022/07/16 18:44:22;;;;;;;14.90;3.70;;;;;;;;;;10134856;28;20045;-63
2022/07/16 18:49:16;;;;;;;11.02;3.40;;;;;;;;;;10138018;28;20067;-64
2022/07/16 18:54:11;;;;;;;8.10;3.78;;;;;;;;;;10142642;28;20140;-63
2022/07/16 18:59:05;;;;;;;6.32;4.15;;;;;;;;;;10146494;28;20044;-63
2022/07/16 19:04:08;;;;;;;9.85;3.58;;;;;;;;;;10139707;28;20082;-63
2022/07/16 19:09:02;;;;;;;6.18;3.60;;;;;;;;;;10137421;28;20441;-63
2022/07/16 19:13:59;;;;;;;6.45;4.07;;;;;;;;;;10144372;28;20080;-63
2022/07/16 19:18:52;;;;;;;8.48;3.40;;;;;;;;;;10141057;28;20055;-63
2022/07/16 19:23:51;;;;;;;7.85;3.60;;;;;;;;;;10135776;28;20076;-63
2022/07/16 19:28:46;;;;;;;6.78;3.33;;;;;;;;;;10145717;28;20045;-63
2022/07/16 19:33:40;;;;;;;6.82;4.10;;;;;;;;;;10142191;28;20047;-63
2022/07/16 19:38:36;;;;;;;9.43;4.18;;;;;;;;;;10147932;28;20063;-63
2022/07/16 19:43:30;;;;;;;10.85;4.53;;;;;;;;;;10135895;28;20075;-63
2022/07/16 19:48:25;;;;;;;9.85;3.60;;;;;;;;;;10141533;28;20060;-63
2022/07/16 19:53:19;;;;;;;8.32;4.28;;;;;;;;;;10148746;28;20098;-63
2022/07/16 19:58:14;;;;;;;11.75;4.32;;;;;;;;;;10151833;28;20110;-63
2022/07/16 20:03:08;;;;;;;5.45;4.03;;;;;;;;;;10138612;28;20131;-64
2022/07/16 20:08:21;;;;;;;13.07;4.55;;;;;;;;;;10145348;28;20413;-62
2022/07/16 20:13:16;;;;;;;9.13;4.03;;;;;;;;;;10149849;28;20051;-63
2022/07/16 20:18:10;;;;;;;9.93;4.15;;;;;;;;;;10146921;28;20049;-63
2022/07/16 20:23:04;;;;;;;10.27;4.53;;;;;;;;;;10144626;28;20110;-63
2022/07/16 20:27:58;;;;;;;10.40;4.65;;;;;;;;;;10141839;28;20093;-63
2022/07/16 20:32:52;;;;;;;12.55;4.78;;;;;;;;;;10132341;28;20052;-67
2022/07/16 20:37:46;;;;;;;11.88;4.75;;;;;;;;;;10147910;28;20459;-63
2022/07/16 20:42:41;;;;;;;11.20;4.65;;;;;;;;;;10550922;22;20059;-68
2022/07/16 20:47:37;;;;;;;8.85;3.60;;;;;;;;;;10185568;28;20052;-66
2022/07/16 20:52:34;;;;;;;3.92;3.53;;;;;;;;;;10185105;28;20143;-67
2022/07/16 20:57:28;;;;;;;7.03;3.47;;;;;;;;;;10189881;28;20074;-67
2022/07/16 21:02:22;;;;;;;8.70;3.60;;;;;;;;;;10181037;28;20151;-64
2022/07/16 21:07:16;;;;;;;5.82;3.78;;;;;;;;;;10189509;28;20060;-65
2022/07/16 21:12:11;;;;;;;5.38;3.65;;;;;;;;;;10189797;28;20060;-65
2022/07/16 21:17:06;;;;;;;5.68;3.40;;;;;;;;;;10180131;28;20062;-68
2022/07/16 21:21:59;;;;;;;9.93;4.13;;;;;;;;;;10188685;28;20101;-68
2022/07/16 21:26:53;;;;;;;7.68;4.20;;;;;;;;;;10188778;28;20055;-70
2022/07/16 21:31:46;;;;;;;4.85;3.88;;;;;;;;;;10186580;28;20052;-68
2022/07/16 21:36:41;;;;;;;13.52;4.00;;;;;;;;;;10185608;28;20689;-68
2022/07/16 21:41:35;;;;;;;7.07;2.88;;;;;;;;;;10185894;28;20087;-67
2022/07/16 21:46:29;;;;;;;9.25;3.80;;;;;;;;;;10182434;28;20052;-68
2022/07/16 21:51:24;;;;;;;5.15;3.35;;;;;;;;;;10179621;28;20051;-67
2022/07/16 21:56:17;;;;;;;4.22;3.42;;;;;;;;;;10188070;28;20056;-66
2022/07/16 22:01:12;;;;;;;7.15;3.83;;;;;;;;;;10187524;28;20051;-67
2022/07/16 22:06:06;;;;;;;5.95;3.15;;;;;;;;;;10187590;28;20054;-72
2022/07/16 22:11:01;;;;;;;5.88;3.50;;;;;;;;;;10187804;28;20036;-69
2022/07/16 22:15:54;;;;;;;7.70;4.28;;;;;;;;;;10188580;28;20123;-71
2022/07/16 22:20:54;;;;;;;12.80;3.58;;;;;;;;;;10183878;28;20099;-72
2022/07/16 22:25:56;;;;;;;8.23;4.43;;;;;;;;;;10179862;28;20051;-66
2022/07/16 22:30:51;;;;;;;9.55;3.85;;;;;;;;;;10177966;28;20063;-68
2022/07/16 22:35:46;;;;;;;10.35;4.97;;;;;;;;;;10169630;28;20098;-67
2022/07/16 22:40:40;;;;;;;7.10;4.30;;;;;;;;;;10153609;28;20135;-71
2022/07/16 22:45:34;;;;;;;5.57;3.85;;;;;;;;;;10172234;28;20064;-66
2022/07/16 22:50:28;;;;;;;9.02;4.97;;;;;;;;;;10173237;28;20052;-66
2022/07/16 22:55:24;;;;;;;13.20;4.50;;;;;;;;;;10173488;28;20135;-65
2022/07/16 23:00:19;;;;;;;4.15;3.75;;;;;;;;;;10166126;28;20048;-66
2022/07/16 23:05:12;;;;;;;9.93;4.43;;;;;;;;;;10161481;28;20055;-65
2022/07/16 23:10:08;;;;;;;6.93;4.00;;;;;;;;;;10183372;28;20048;-66
2022/07/16 23:15:03;;;;;;;6.45;4.10;;;;;;;;;;10174639;28;20048;-66
2022/07/16 23:19:57;;;;;;;6.13;3.88;;;;;;;;;;10166853;28;20091;-66
2022/07/16 23:24:52;;;;;;;5.15;4.25;;;;;;;;;;10176175;28;20052;-65
2022/07/16 23:29:46;;;;;;;12.80;5.57;;;;;;;;;;10183539;28;20127;-65
2022/07/16 23:34:39;;;;;;;12.57;5.82;;;;;;;;;;10184343;28;20044;-65
2022/07/16 23:39:33;;;;;;;9.77;5.53;;;;;;;;;;10164572;28;20414;-65
2022/07/16 23:44:27;;;;;;;11.90;6.30;;;;;;;;;;10181704;28;20056;-66
2022/07/16 23:49:21;;;;;;;8.68;6.05;;;;;;;;;;10193574;28;20060;-65
2022/07/16 23:54:15;;;;;;;8.02;5.90;;;;;;;;;;10167539;28;20045;-65
2022/07/16 23:59:10;;;;;;;9.27;6.13;;;;;;;;;;10191768;28;20047;-66
